Terminal Aerodrome Forecast
Issued by NWS

Home | Current Version | Previous Version | Text Only | Print | Product List | Glossary On
Versions: 1 2 3 4 5 6 7 8 9 10 11 12 13 14 15 16
384
FTAK31 PAJN 120043 AAA
TAFASI
TAF AMD
PASI 120043Z 1201/1224 12014KT P6SM VCSH SCT040 OVC070
      WS020/13025KT
     FM120400 10012G23KT P6SM -RA BKN080 WS020/14035KT
     FM121100 10015G25KT P6SM -RA SCT050 OVC080 WS020/12030KT
     FM121400 11009G17KT P6SM -RA BKN025 OVC050=

USA.gov is the U.S. government's official web portal to all federal, state and local government web resources and services.